Time;durP1;ratioP1;P1;durP2;ratioP2;P2;SDS_P1;SDS_P2;PMS_P1;PMS_P2;Temp;Humidity;BMP_temperature;BMP_pressure;BME280_temperature;BME280_humidity;BME280_pressure;Samples;Min_cycle;Max_cycle;Signal;HPM_P1;HPM_P2
2021/03/28 00:01:47;;;;;;;4.22;2.38;;;;;;;19.51;38.68;102014.88;31119656;28;20037;-60
2021/03/28 00:16:48;;;;;;;3.73;2.23;;;;;;;19.22;36.28;102010.63;31174926;28;20045;-60
2021/03/28 00:32:05;;;;;;;4.20;2.27;;;;;;;19.17;36.98;102017.13;31128468;28;20045;-61
2021/03/28 00:47:06;;;;;;;;;;;;;;;19.21;37.55;102026.53;31099296;28;20293;-61
2021/03/28 01:02:10;;;;;;;3.88;1.85;;;;;;;19.09;37.77;102029.97;31085040;28;19923;-60
2021/03/28 01:17:25;;;;;;;4.68;1.85;;;;;;;19.02;38.19;102042.72;31225471;28;20033;-61
2021/03/28 01:32:28;;;;;;;4.40;2.30;;;;;;;18.94;38.20;102053.72;31215583;28;20045;-60
2021/03/28 01:47:48;;;;;;;4.00;2.00;;;;;;;18.89;38.19;102053.19;31201579;28;20029;-59
2021/03/28 02:03:12;;;;;;;4.20;2.08;;;;;;;18.82;38.25;102046.63;31218723;28;20049;-60
2021/03/28 02:18:46;;;;;;;6.25;1.90;;;;;;;18.77;38.27;102038.16;31222142;28;20037;-61
2021/03/28 02:33:54;;;;;;;3.45;1.80;;;;;;;18.71;38.71;102052.53;31190831;28;20033;-59
2021/03/28 02:49:02;;;;;;;4.22;2.05;;;;;;;18.66;38.68;102064.31;31200997;28;20017;-61
2021/03/28 03:04:42;;;;;;;3.33;1.80;;;;;;;18.60;38.87;102069.03;31226816;28;20060;-61
2021/03/28 03:20:17;;;;;;;3.33;1.70;;;;;;;18.53;38.72;102080.88;31231129;28;20042;-59
2021/03/28 03:35:48;;;;;;;4.70;1.80;;;;;;;18.49;38.88;102107.50;31180886;28;20041;-61
2021/03/28 03:51:26;;;;;;;3.13;1.63;;;;;;;18.45;38.94;102116.53;31239480;28;20503;-60
2021/03/28 04:07:02;;;;;;;3.50;1.80;;;;;;;18.38;39.06;102116.88;31252352;28;20547;-59
2021/03/28 04:22:41;;;;;;;4.28;1.85;;;;;;;18.34;38.95;102118.00;31230142;28;20045;-59
2021/03/28 04:37:51;;;;;;;4.63;1.80;;;;;;;18.30;38.80;102110.38;31159756;28;20037;-59
2021/03/28 04:53:01;;;;;;;4.40;2.00;;;;;;;18.27;38.72;102123.75;31156785;28;20092;-59
2021/03/28 05:08:25;;;;;;;3.65;1.70;;;;;;;18.23;38.76;102130.97;31235680;28;20041;-59
2021/03/28 05:24:20;;;;;;;3.80;1.70;;;;;;;18.24;38.74;102134.47;31212709;28;20041;-60
2021/03/28 05:39:21;;;;;;;6.07;2.17;;;;;;;18.25;38.50;102129.09;31175428;28;20042;-61
2021/03/28 05:54:40;;;;;;;3.90;1.63;;;;;;;18.25;38.46;102134.34;31225854;28;20087;-62
2021/03/28 06:10:02;;;;;;;4.85;2.03;;;;;;;18.38;38.22;102137.09;31224242;28;20396;-63
2021/03/28 06:25:29;;;;;;;5.50;1.95;;;;;;;18.53;37.73;102144.06;31241783;28;20049;-61
2021/03/28 06:40:53;;;;;;;3.70;2.00;;;;;;;18.62;37.50;102156.69;31229947;28;20052;-60
2021/03/28 06:56:14;;;;;;;4.43;1.73;;;;;;;18.76;37.18;102139.16;31116196;28;20452;-61
2021/03/28 07:11:21;;;;;;;4.60;1.90;;;;;;;18.91;36.75;102145.31;31145013;28;20092;-59
2021/03/28 07:26:45;;;;;;;4.82;1.92;;;;;;;19.01;36.89;102144.63;31118886;28;20037;-59
2021/03/28 07:41:57;;;;;;;8.27;4.00;;;;;;;16.55;31.71;102148.19;31181336;28;20091;-57
2021/03/28 07:57:43;;;;;;;9.75;2.65;;;;;;;18.40;34.45;102156.28;31217403;28;20033;-59
2021/03/28 08:13:15;;;;;;;5.28;1.70;;;;;;;19.57;33.79;102151.63;31138526;28;20088;-57
2021/03/28 08:28:31;;;;;;;5.25;2.00;;;;;;;19.30;34.52;102155.09;31153266;28;20041;-57
2021/03/28 08:44:11;;;;;;;4.40;1.53;;;;;;;20.10;34.03;102157.78;31129638;28;20041;-56
2021/03/28 08:59:19;;;;;;;4.35;1.50;;;;;;;20.70;33.09;102146.59;31126387;28;20049;-56
2021/03/28 09:14:33;;;;;;;4.57;1.65;;;;;;;21.28;32.29;102138.94;31160917;28;20037;-58
2021/03/28 09:29:44;;;;;;;5.90;2.00;;;;;;;24.34;27.46;102141.25;31187105;28;20453;-55
2021/03/28 09:45:27;;;;;;;4.40;1.60;;;;;;;28.37;21.37;102111.09;31130595;28;20695;-57
2021/03/28 10:00:50;;;;;;;3.22;1.70;;;;;;;25.70;25.61;102112.28;31121281;28;20288;-58
2021/03/28 10:16:13;;;;;;;4.25;1.63;;;;;;;29.88;20.47;102100.31;31046140;28;20381;-58
2021/03/28 10:31:31;;;;;;;4.23;2.03;;;;;;;30.26;18.37;102101.34;31105901;28;20042;-56
2021/03/28 10:46:32;;;;;;;4.90;1.95;;;;;;;25.66;25.50;102096.75;31095223;28;20104;-56
2021/03/28 11:02:01;;;;;;;4.70;2.22;;;;;;;24.10;28.50;102084.91;31184488;28;20064;-58
2021/03/28 11:17:34;;;;;;;4.00;1.98;;;;;;;23.40;30.30;102074.81;31165399;28;20049;-54
2021/03/28 11:32:48;;;;;;;4.20;2.35;;;;;;;23.34;30.63;102072.69;31148670;28;22109;-56
2021/03/28 11:47:51;;;;;;;5.53;2.55;;;;;;;22.77;32.03;102068.50;31205588;28;20030;-55
2021/03/28 12:03:18;;;;;;;4.90;2.38;;;;;;;22.02;32.80;102066.44;31079729;28;20389;-57
2021/03/28 12:18:28;;;;;;;6.35;2.45;;;;;;;21.57;33.88;102061.91;31106420;28;20104;-57
2021/03/28 12:33:53;;;;;;;6.28;2.92;;;;;;;21.63;33.86;102042.09;31123380;28;20038;-55
2021/03/28 12:49:10;;;;;;;4.63;2.80;;;;;;;21.46;34.09;102040.69;31121473;28;20455;-58
2021/03/28 13:04:19;;;;;;;6.23;2.87;;;;;;;21.71;33.86;102021.16;31159083;28;20571;-57
2021/03/28 13:19:25;;;;;;;8.30;3.33;;;;;;;21.66;34.71;102010.09;31141469;28;20288;-55
2021/03/28 13:34:33;;;;;;;8.73;3.90;;;;;;;20.98;36.46;102001.94;31069172;28;20030;-57
2021/03/28 13:49:40;;;;;;;9.13;2.85;;;;;;;20.41;36.12;102013.06;31082909;28;20057;-57
2021/03/28 14:04:42;;;;;;;8.55;2.80;;;;;;;19.98;35.10;102013.47;31085422;28;20034;-56
2021/03/28 14:19:43;;;;;;;6.10;2.63;;;;;;;19.83;35.24;101995.09;31110211;28;20042;-58
2021/03/28 14:34:57;;;;;;;6.63;2.30;;;;;;;19.76;34.83;101990.38;31152871;28;20048;-54
2021/03/28 14:50:09;;;;;;;6.28;2.97;;;;;;;19.75;34.90;101983.41;31215068;28;20292;-57
2021/03/28 15:05:41;;;;;;;5.45;2.45;;;;;;;19.60;34.76;101972.06;31160526;28;20057;-57
2021/03/28 15:20:44;;;;;;;7.00;3.13;;;;;;;19.45;35.28;101966.91;31157203;28;20100;-53
2021/03/28 15:36:25;;;;;;;5.65;2.88;;;;;;;19.39;35.98;101969.09;31136110;28;20064;-60
2021/03/28 15:51:54;;;;;;;4.75;2.47;;;;;;;19.31;36.40;101969.63;31084113;28;20110;-60
2021/03/28 16:07:08;;;;;;;6.93;3.03;;;;;;;19.26;36.98;101955.91;31158781;28;20030;-60
2021/03/28 16:22:50;;;;;;;6.70;3.00;;;;;;;19.22;37.43;101952.63;31169996;28;20049;-61
2021/03/28 16:38:23;;;;;;;6.45;3.05;;;;;;;19.12;37.63;101940.16;31064624;28;20550;-59
2021/03/28 16:53:31;;;;;;;5.75;3.05;;;;;;;19.00;37.85;101944.47;31100280;28;20050;-57
2021/03/28 17:08:36;;;;;;;5.50;3.50;;;;;;;18.87;38.14;101949.69;31125239;28;20061;-60
2021/03/28 17:23:38;;;;;;;6.32;3.38;;;;;;;18.84;38.51;101963.06;31136036;28;20046;-59
2021/03/28 17:39:11;;;;;;;6.32;3.50;;;;;;;18.79;38.22;101968.66;31138026;28;20022;-59
2021/03/28 17:54:34;;;;;;;7.50;3.78;;;;;;;19.02;37.91;101977.69;31139490;28;20485;-57
2021/03/28 18:10:08;;;;;;;8.05;3.85;;;;;;;19.37;37.56;101992.94;31167967;28;20026;-60
2021/03/28 18:25:40;;;;;;;12.63;5.18;;;;;;;19.54;37.35;102007.63;31124174;28;20569;-60
2021/03/28 18:40:40;;;;;;;12.25;6.68;;;;;;;19.58;37.22;102016.16;31138842;28;20092;-58
2021/03/28 18:55:43;;;;;;;8.93;6.13;;;;;;;19.54;37.60;102031.38;31139912;28;20033;-58
2021/03/28 19:10:44;;;;;;;10.55;6.00;;;;;;;19.48;37.66;102042.31;31197968;28;20083;-58
2021/03/28 19:25:45;;;;;;;9.23;6.13;;;;;;;19.42;38.48;102037.44;31191380;28;20111;-58
2021/03/28 19:40:50;;;;;;;9.43;6.17;;;;;;;19.36;38.78;102030.78;31204987;28;20804;-57
2021/03/28 19:55:57;;;;;;;8.30;5.55;;;;;;;19.27;38.56;102031.41;31215134;28;20659;-59
2021/03/28 20:11:08;;;;;;;9.10;6.57;;;;;;;19.22;38.65;102036.97;31199708;28;20060;-59
2021/03/28 20:26:15;;;;;;;9.55;6.50;;;;;;;19.18;38.92;102032.84;31146315;28;20038;-56
2021/03/28 20:41:17;;;;;;;9.50;6.68;;;;;;;19.17;38.89;102035.56;31183414;28;20042;-57
2021/03/28 20:56:20;;;;;;;8.52;6.50;;;;;;;19.18;38.42;102047.84;31140883;28;20103;-56
2021/03/28 21:11:27;;;;;;;10.10;6.55;;;;;;;19.23;38.30;102051.00;31143457;28;20500;-57
2021/03/28 21:26:46;;;;;;;9.60;6.32;;;;;;;19.21;38.18;102035.28;31151825;28;20046;-59
2021/03/28 21:41:51;;;;;;;9.50;6.57;;;;;;;19.19;38.27;102024.00;31176870;28;20064;-58
2021/03/28 21:56:51;;;;;;;9.23;6.53;;;;;;;19.18;38.29;102022.31;31146217;28;20053;-58
2021/03/28 22:11:53;;;;;;;9.30;5.80;;;;;;;19.08;38.49;102031.78;31156800;28;20459;-61
2021/03/28 22:26:56;;;;;;;8.02;5.63;;;;;;;18.94;37.95;102034.44;31159231;28;20355;-58
2021/03/28 22:41:57;;;;;;;8.80;5.63;;;;;;;18.87;38.34;102033.16;31053023;28;20042;-58
2021/03/28 22:57:04;;;;;;;11.25;5.43;;;;;;;18.80;38.79;102043.22;31083887;28;20064;-57
2021/03/28 23:12:06;;;;;;;;;;;;;;;18.77;38.83;102046.91;31117101;28;20046;-59
2021/03/28 23:27:07;;;;;;;8.80;6.10;;;;;;;18.67;39.07;102045.78;31132161;28;20441;-59
2021/03/28 23:42:08;;;;;;;9.02;5.97;;;;;;;18.64;38.79;102045.97;31136606;28;20029;-60
2021/03/28 23:57:09;;;;;;;8.50;5.87;;;;;;;18.60;39.50;102049.75;31121169;28;20048;-58
